Time;durP1;ratioP1;P1;durP2;ratioP2;P2;SDS_P1;SDS_P2;PMS_P1;PMS_P2;Temp;Humidity;BMP_temperature;BMP_pressure;BME280_temperature;BME280_humidity;BME280_pressure;Samples;Min_cycle;Max_cycle;Signal;HPM_P1;HPM_P2
2021/12/23 00:00:14;;;;;;;20.13;4.97;;;;;;;;;;5075483;28;20116;-68
2021/12/23 00:02:40;;;;;;;13.27;4.32;;;;;;;;;;5075278;28;20077;-68
2021/12/23 00:05:07;;;;;;;9.60;4.60;;;;;;;;;;5057155;28;20115;-67
2021/12/23 00:07:33;;;;;;;9.43;4.35;;;;;;;;;;5073907;28;20518;-66
2021/12/23 00:10:05;;;;;;;7.50;4.38;;;;;;;;;;5075112;28;20029;-66
2021/12/23 00:12:31;;;;;;;6.13;4.03;;;;;;;;;;5075368;28;20048;-65
2021/12/23 00:14:57;;;;;;;11.82;4.65;;;;;;;;;;5075670;28;20016;-67
2021/12/23 00:25:29;;;;;;;14.02;5.38;;;;;;;;;;5055179;28;20499;-69
2021/12/23 00:27:55;;;;;;;13.38;5.43;;;;;;;;;;5054694;28;20041;-71
2021/12/23 00:30:21;;;;;;;15.73;5.70;;;;;;;;;;5036795;28;20434;-71
2021/12/23 00:32:47;;;;;;;14.43;5.03;;;;;;;;;;5054140;28;20061;-66
2021/12/23 00:35:14;;;;;;;7.93;4.80;;;;;;;;;;5038285;28;20033;-67
2021/12/23 00:37:43;;;;;;;8.88;4.25;;;;;;;;;;5036100;28;20391;-68
2021/12/23 00:40:10;;;;;;;7.72;4.90;;;;;;;;;;5040858;28;20092;-67
2021/12/23 00:42:37;;;;;;;15.93;5.00;;;;;;;;;;5073925;28;20039;-66
2021/12/23 00:45:03;;;;;;;9.60;4.32;;;;;;;;;;5076389;28;20398;-65
2021/12/23 00:47:30;;;;;;;13.05;5.15;;;;;;;;;;5094653;28;20375;-66
2021/12/23 00:49:56;;;;;;;14.88;4.70;;;;;;;;;;5094504;28;20125;-67
2021/12/23 00:52:29;;;;;;;9.02;5.47;;;;;;;;;;5077641;28;20127;-67
2021/12/23 00:54:55;;;;;;;;;;;;;;;;;;5074729;28;20107;-71
2021/12/23 00:57:27;;;;;;;13.00;4.95;;;;;;;;;;5072960;28;20031;-68
2021/12/23 00:59:53;;;;;;;10.48;4.90;;;;;;;;;;5074175;28;20024;-69
2021/12/23 01:02:22;;;;;;;11.80;4.63;;;;;;;;;;5073963;28;20074;-69
2021/12/23 01:04:48;;;;;;;9.95;4.40;;;;;;;;;;5074120;28;20021;-69
2021/12/23 01:07:14;;;;;;;7.20;4.53;;;;;;;;;;5072870;28;20111;-68
2021/12/23 01:09:40;;;;;;;9.48;5.00;;;;;;;;;;5073824;28;20103;-68
2021/12/23 01:12:09;;;;;;;14.23;4.82;;;;;;;;;;5073708;28;20111;-68
2021/12/23 01:14:52;;;;;;;12.25;4.57;;;;;;;;;;5072856;28;20017;-66
2021/12/23 01:19:50;;;;;;;10.55;4.25;;;;;;;;;;5088275;28;20134;-70
2021/12/23 01:22:16;;;;;;;12.65;4.78;;;;;;;;;;5055780;28;20085;-68
2021/12/23 01:24:42;;;;;;;5.82;4.20;;;;;;;;;;5073583;28;20032;-69
2021/12/23 01:27:08;;;;;;;6.72;4.30;;;;;;;;;;5073725;28;20025;-69
2021/12/23 01:29:34;;;;;;;6.82;4.38;;;;;;;;;;5073647;28;20028;-70
2021/12/23 01:32:03;;;;;;;6.03;4.13;;;;;;;;;;5055615;28;20368;-70
2021/12/23 01:34:29;;;;;;;9.50;4.18;;;;;;;;;;5056384;28;20017;-70
2021/12/23 01:36:55;;;;;;;6.47;4.15;;;;;;;;;;5043820;28;20037;-70
2021/12/23 01:39:21;;;;;;;12.10;4.68;;;;;;;;;;5043947;28;20036;-68
2021/12/23 01:41:47;;;;;;;10.63;4.40;;;;;;;;;;5047532;28;20035;-69
2021/12/23 01:44:13;;;;;;;9.13;4.70;;;;;;;;;;5048698;28;20350;-71
2021/12/23 01:46:39;;;;;;;6.93;4.13;;;;;;;;;;5038056;28;20065;-71
2021/12/23 01:49:06;;;;;;;5.53;4.03;;;;;;;;;;5045927;28;20104;-70
2021/12/23 01:51:32;;;;;;;5.75;4.63;;;;;;;;;;5040085;28;20029;-70
2021/12/23 01:53:58;;;;;;;11.43;4.60;;;;;;;;;;5044506;28;20026;-71
2021/12/23 01:56:24;;;;;;;7.20;4.18;;;;;;;;;;5036031;28;20044;-70
2021/12/23 01:58:50;;;;;;;7.78;4.40;;;;;;;;;;5037612;28;20040;-70
2021/12/23 02:01:16;;;;;;;6.93;3.90;;;;;;;;;;5022397;28;20068;-71
2021/12/23 02:03:42;;;;;;;6.80;4.40;;;;;;;;;;5047736;28;20048;-70
2021/12/23 02:06:09;;;;;;;6.80;4.25;;;;;;;;;;5039806;28;20042;-71
2021/12/23 02:08:36;;;;;;;6.40;4.05;;;;;;;;;;5047454;28;20488;-69
2021/12/23 02:11:02;;;;;;;6.00;4.38;;;;;;;;;;5052852;28;20029;-69
2021/12/23 02:13:29;;;;;;;7.05;4.60;;;;;;;;;;5053066;28;20032;-69
2021/12/23 02:15:55;;;;;;;11.50;4.90;;;;;;;;;;5052762;28;20052;-70
2021/12/23 02:18:21;;;;;;;5.82;4.25;;;;;;;;;;5055062;28;20060;-69
2021/12/23 02:20:47;;;;;;;5.68;4.03;;;;;;;;;;5063487;28;20060;-69
2021/12/23 02:23:14;;;;;;;6.20;4.40;;;;;;;;;;5072877;28;20420;-69
2021/12/23 02:25:40;;;;;;;5.30;4.15;;;;;;;;;;5072631;28;20395;-68
2021/12/23 02:28:08;;;;;;;6.47;4.43;;;;;;;;;;5055044;28;20021;-67
2021/12/23 02:30:35;;;;;;;6.65;4.22;;;;;;;;;;5072787;28;20078;-68
2021/12/23 02:33:01;;;;;;;7.70;4.18;;;;;;;;;;5054655;28;20162;-68
2021/12/23 02:35:27;;;;;;;6.88;4.35;;;;;;;;;;5072063;28;20466;-69
2021/12/23 02:37:53;;;;;;;5.47;4.22;;;;;;;;;;5072750;28;20095;-68
2021/12/23 02:40:31;;;;;;;4.38;3.88;;;;;;;;;;5054639;28;20029;-68
2021/12/23 02:42:58;;;;;;;8.05;4.80;;;;;;;;;;5075077;28;20032;-70
2021/12/23 02:45:24;;;;;;;5.95;4.57;;;;;;;;;;5092908;28;20024;-70
2021/12/23 02:47:50;;;;;;;6.85;4.80;;;;;;;;;;5074791;28;20031;-70
2021/12/23 02:50:16;;;;;;;6.60;4.97;;;;;;;;;;5083131;28;20029;-70
2021/12/23 02:52:42;;;;;;;5.78;4.53;;;;;;;;;;5072439;28;20041;-70
2021/12/23 02:55:09;;;;;;;5.63;4.55;;;;;;;;;;5072504;28;20025;-70
2021/12/23 02:57:38;;;;;;;9.70;4.68;;;;;;;;;;5072401;28;20020;-67
2021/12/23 03:00:05;;;;;;;7.15;5.32;;;;;;;;;;5072512;28;20020;-69
2021/12/23 03:02:31;;;;;;;6.03;5.10;;;;;;;;;;5072770;28;20098;-70
2021/12/23 03:04:57;;;;;;;6.93;5.28;;;;;;;;;;5076156;28;20460;-70
2021/12/23 03:07:23;;;;;;;8.45;5.10;;;;;;;;;;5075436;28;20345;-71
2021/12/23 03:09:49;;;;;;;6.78;5.45;;;;;;;;;;5076214;28;20107;-68
2021/12/23 03:12:15;;;;;;;15.50;5.93;;;;;;;;;;5076247;28;20043;-70
2021/12/23 03:14:41;;;;;;;8.55;6.00;;;;;;;;;;5076252;28;20029;-69
2021/12/23 03:17:07;;;;;;;14.82;6.10;;;;;;;;;;5076077;28;20380;-68
2021/12/23 03:19:33;;;;;;;7.50;5.35;;;;;;;;;;5088510;28;20102;-70
2021/12/23 03:21:59;;;;;;;13.90;6.38;;;;;;;;;;5096350;28;20084;-70
2021/12/23 03:24:25;;;;;;;8.95;6.43;;;;;;;;;;5081372;28;20032;-70
2021/12/23 03:26:51;;;;;;;12.20;6.13;;;;;;;;;;5076303;28;20037;-71
2021/12/23 03:29:17;;;;;;;8.82;6.38;;;;;;;;;;5075788;28;20499;-72
2021/12/23 03:31:43;;;;;;;10.23;6.45;;;;;;;;;;5058134;28;20032;-71
2021/12/23 03:34:09;;;;;;;8.80;7.13;;;;;;;;;;5076021;28;20032;-72
2021/12/23 03:36:35;;;;;;;9.38;6.88;;;;;;;;;;5075853;28;20031;-71
2021/12/23 03:39:02;;;;;;;12.05;7.50;;;;;;;;;;5057954;28;20037;-71
2021/12/23 03:41:28;;;;;;;10.07;7.60;;;;;;;;;;5057524;28;20391;-71
2021/12/23 03:43:54;;;;;;;11.25;7.75;;;;;;;;;;5086129;28;20493;-70
2021/12/23 03:46:20;;;;;;;10.95;7.28;;;;;;;;;;5096051;28;20093;-71
2021/12/23 03:48:46;;;;;;;10.30;8.18;;;;;;;;;;5095803;28;20086;-72
2021/12/23 03:51:12;;;;;;;11.75;8.23;;;;;;;;;;5088674;28;20108;-71
2021/12/23 03:53:38;;;;;;;11.40;8.55;;;;;;;;;;5057361;28;20119;-70
2021/12/23 03:56:04;;;;;;;13.25;9.13;;;;;;;;;;5075429;28;20029;-68
2021/12/23 03:58:30;;;;;;;12.38;8.98;;;;;;;;;;5075361;28;20082;-69
2021/12/23 04:00:56;;;;;;;11.55;8.75;;;;;;;;;;5075311;28;20028;-70
2021/12/23 04:03:22;;;;;;;11.07;9.30;;;;;;;;;;5075524;28;20056;-70
2021/12/23 04:05:48;;;;;;;12.10;9.55;;;;;;;;;;5056664;28;20036;-70
2021/12/23 04:08:14;;;;;;;14.52;9.73;;;;;;;;;;5074979;28;20020;-69
2021/12/23 04:10:40;;;;;;;13.40;9.48;;;;;;;;;;5075139;28;20490;-68
2021/12/23 04:13:06;;;;;;;11.90;9.88;;;;;;;;;;5075114;28;20037;-68
2021/12/23 04:15:32;;;;;;;14.75;9.75;;;;;;;;;;5074891;28;20368;-68
2021/12/23 04:17:58;;;;;;;14.00;10.18;;;;;;;;;;5056940;28;20028;-68
2021/12/23 04:20:31;;;;;;;13.38;10.60;;;;;;;;;;5094119;28;20024;-68
2021/12/23 04:22:58;;;;;;;16.45;10.90;;;;;;;;;;5061764;28;20033;-69
2021/12/23 04:25:25;;;;;;;14.68;10.85;;;;;;;;;;5074779;28;20769;-70
2021/12/23 04:27:52;;;;;;;17.27;11.27;;;;;;;;;;5074716;28;20113;-71
2021/12/23 04:30:19;;;;;;;16.95;11.15;;;;;;;;;;5074917;28;20051;-69
2021/12/23 04:32:45;;;;;;;15.00;11.65;;;;;;;;;;5074591;28;20097;-69
2021/12/23 04:35:11;;;;;;;17.98;11.52;;;;;;;;;;5074783;28;20020;-69
2021/12/23 04:37:37;;;;;;;17.15;12.07;;;;;;;;;;5073950;28;20024;-70
2021/12/23 04:40:08;;;;;;;15.27;11.32;;;;;;;;;;5074323;28;20085;-70
2021/12/23 04:42:34;;;;;;;14.45;11.25;;;;;;;;;;5074429;28;20020;-69
2021/12/23 04:45:00;;;;;;;14.60;11.75;;;;;;;;;;5093972;28;20020;-68
2021/12/23 04:47:26;;;;;;;14.60;11.73;;;;;;;;;;5094631;28;20384;-70
2021/12/23 04:49:52;;;;;;;14.85;11.70;;;;;;;;;;5094864;28;20028;-69
2021/12/23 04:52:17;;;;;;;14.95;12.10;;;;;;;;;;5078261;28;20036;-70
2021/12/23 04:54:43;;;;;;;13.43;10.55;;;;;;;;;;5074237;28;20029;-70
2021/12/23 04:57:10;;;;;;;16.33;12.20;;;;;;;;;;5074228;28;20039;-70
2021/12/23 04:59:36;;;;;;;14.27;11.73;;;;;;;;;;5074249;28;20103;-68
2021/12/23 05:02:03;;;;;;;14.13;11.35;;;;;;;;;;5074014;28;20040;-70
2021/12/23 05:04:29;;;;;;;14.85;12.18;;;;;;;;;;5056206;28;20025;-69
2021/12/23 05:06:55;;;;;;;14.13;11.43;;;;;;;;;;5073271;28;20032;-69
2021/12/23 05:09:21;;;;;;;15.52;12.27;;;;;;;;;;5073851;28;20028;-68
2021/12/23 05:11:47;;;;;;;16.58;12.13;;;;;;;;;;5055999;28;20097;-68
2021/12/23 05:14:12;;;;;;;17.88;12.82;;;;;;;;;;5073985;28;20361;-70
2021/12/23 05:16:38;;;;;;;15.85;12.57;;;;;;;;;;5073894;28;20079;-69
2021/12/23 05:19:05;;;;;;;19.63;12.55;;;;;;;;;;5081976;28;20023;-68
2021/12/23 05:21:31;;;;;;;16.80;11.82;;;;;;;;;;5093942;28;20123;-68
2021/12/23 05:23:57;;;;;;;17.10;12.20;;;;;;;;;;5076599;28;20039;-68
2021/12/23 05:26:23;;;;;;;16.55;12.73;;;;;;;;;;5054867;28;20115;-67
2021/12/23 05:28:49;;;;;;;17.25;12.35;;;;;;;;;;5073501;28;20128;-69
2021/12/23 05:31:15;;;;;;;15.85;11.50;;;;;;;;;;5073573;28;20448;-68
2021/12/23 05:33:41;;;;;;;15.02;12.10;;;;;;;;;;5055564;28;20029;-69
2021/12/23 05:36:07;;;;;;;18.17;12.57;;;;;;;;;;5073407;28;20029;-70
2021/12/23 05:38:33;;;;;;;18.02;12.90;;;;;;;;;;5072697;28;20063;-69
2021/12/23 05:40:59;;;;;;;18.55;12.52;;;;;;;;;;5073265;28;20047;-69
2021/12/23 05:43:25;;;;;;;20.83;12.73;;;;;;;;;;5073345;28;20021;-70
2021/12/23 05:45:51;;;;;;;17.67;12.70;;;;;;;;;;5073468;28;20421;-70
2021/12/23 05:48:17;;;;;;;20.25;13.32;;;;;;;;;;5055295;28;20017;-70
2021/12/23 05:50:43;;;;;;;16.50;12.73;;;;;;;;;;5073191;28;20020;-69
2021/12/23 05:53:09;;;;;;;17.58;12.68;;;;;;;;;;5055352;28;20178;-69
2021/12/23 05:55:35;;;;;;;17.55;12.75;;;;;;;;;;5073301;28;20044;-69
2021/12/23 05:58:01;;;;;;;15.60;12.55;;;;;;;;;;5073019;28;20021;-69
2021/12/23 06:00:29;;;;;;;16.38;12.57;;;;;;;;;;5073121;28;20027;-70
2021/12/23 06:02:55;;;;;;;16.88;12.70;;;;;;;;;;5073208;28;20166;-69
2021/12/23 06:05:21;;;;;;;16.00;12.60;;;;;;;;;;5072252;28;20040;-70
2021/12/23 06:07:47;;;;;;;17.75;12.80;;;;;;;;;;5055162;28;20082;-70
2021/12/23 06:10:14;;;;;;;15.60;12.60;;;;;;;;;;5073000;28;20060;-69
2021/12/23 06:12:40;;;;;;;16.55;12.80;;;;;;;;;;5073067;28;20028;-70
2021/12/23 06:15:06;;;;;;;15.63;11.93;;;;;;;;;;5072997;28;20021;-69
2021/12/23 06:17:33;;;;;;;17.70;12.60;;;;;;;;;;5073073;28;20112;-68
2021/12/23 06:19:59;;;;;;;16.95;12.68;;;;;;;;;;5088903;28;20066;-68
2021/12/23 06:22:26;;;;;;;22.85;12.82;;;;;;;;;;5090684;28;20076;-68
2021/12/23 06:24:52;;;;;;;22.02;12.88;;;;;;;;;;5072829;28;20031;-69
2021/12/23 06:27:18;;;;;;;17.08;12.60;;;;;;;;;;5072963;28;20104;-67
2021/12/23 06:29:44;;;;;;;18.85;12.77;;;;;;;;;;5072979;28;20016;-69
2021/12/23 06:32:11;;;;;;;19.83;12.18;;;;;;;;;;5072705;28;20467;-67
2021/12/23 06:34:37;;;;;;;20.77;13.13;;;;;;;;;;5072618;28;20021;-68
2021/12/23 06:37:04;;;;;;;23.08;12.60;;;;;;;;;;5073211;28;20029;-69
2021/12/23 06:39:30;;;;;;;21.85;12.35;;;;;;;;;;5076129;28;20027;-72
2021/12/23 06:41:56;;;;;;;22.73;15.57;;;;;;;;;;5077369;28;20054;-72
2021/12/23 06:44:23;;;;;;;22.67;15.35;;;;;;;;;;5077141;28;20379;-71
2021/12/23 06:46:49;;;;;;;19.70;14.95;;;;;;;;;;5077567;28;20024;-73
2021/12/23 06:49:15;;;;;;;25.30;15.45;;;;;;;;;;5057022;28;20028;-73
2021/12/23 06:51:41;;;;;;;19.92;15.15;;;;;;;;;;5057054;28;20037;-74
2021/12/23 06:54:08;;;;;;;23.80;15.93;;;;;;;;;;5039487;28;20017;-72
2021/12/23 06:56:35;;;;;;;22.60;16.38;;;;;;;;;;5077107;28;20119;-72
2021/12/23 06:59:01;;;;;;;21.73;15.77;;;;;;;;;;5076655;28;20032;-73
2021/12/23 07:01:27;;;;;;;24.70;16.33;;;;;;;;;;5076941;28;20040;-71
2021/12/23 07:04:14;;;;;;;19.85;14.65;;;;;;;;;;5076666;28;20108;-70
2021/12/23 07:06:47;;;;;;;21.90;14.20;;;;;;;;;;5076496;28;20468;-70
2021/12/23 07:09:13;;;;;;;;;;;;;;;;;;5070837;28;20025;-65
2021/12/23 07:11:39;;;;;;;21.33;14.70;;;;;;;;;;5065730;28;20011;-69
2021/12/23 07:14:05;;;;;;;19.33;14.02;;;;;;;;;;5058541;28;20109;-71
2021/12/23 07:16:32;;;;;;;27.33;14.93;;;;;;;;;;5076574;28;20031;-68
2021/12/23 07:18:58;;;;;;;30.40;15.60;;;;;;;;;;5083097;28;20016;-69
2021/12/23 07:21:24;;;;;;;31.88;15.45;;;;;;;;;;5095139;28;20048;-69
2021/12/23 07:23:50;;;;;;;31.13;16.27;;;;;;;;;;5095510;28;20028;-69
2021/12/23 07:26:16;;;;;;;29.20;15.68;;;;;;;;;;5096421;28;20024;-67
2021/12/23 07:28:43;;;;;;;25.08;15.80;;;;;;;;;;5096476;28;20024;-68
2021/12/23 07:31:08;;;;;;;25.95;15.60;;;;;;;;;;5095824;28;20047;-68
2021/12/23 07:33:35;;;;;;;26.58;15.85;;;;;;;;;;5096119;28;20028;-67
2021/12/23 07:36:03;;;;;;;28.27;15.80;;;;;;;;;;5096012;28;20036;-67
2021/12/23 07:38:29;;;;;;;27.77;15.75;;;;;;;;;;5095873;28;20047;-68
2021/12/23 07:40:55;;;;;;;29.30;16.08;;;;;;;;;;5095089;28;20050;-64
2021/12/23 07:46:01;;;;;;;24.10;15.52;;;;;;;;;;5075425;28;20082;-65
2021/12/23 07:48:27;;;;;;;27.70;14.50;;;;;;;;;;5075554;28;20021;-68
2021/12/23 07:50:54;;;;;;;29.33;15.32;;;;;;;;;;5074894;28;20025;-67
2021/12/23 07:53:20;;;;;;;20.67;14.70;;;;;;;;;;5075600;28;20017;-67
2021/12/23 07:55:46;;;;;;;24.98;15.07;;;;;;;;;;5075490;28;20020;-68
2021/12/23 07:58:12;;;;;;;36.22;14.90;;;;;;;;;;5075262;28;20111;-68
2021/12/23 08:00:38;;;;;;;22.15;14.13;;;;;;;;;;5075155;28;20446;-67
2021/12/23 08:03:04;;;;;;;22.02;14.00;;;;;;;;;;5075106;28;20103;-67
2021/12/23 08:05:36;;;;;;;18.92;13.00;;;;;;;;;;5074557;28;20122;-67
2021/12/23 08:08:03;;;;;;;23.38;13.63;;;;;;;;;;5074386;28;20043;-63
2021/12/23 08:10:29;;;;;;;26.83;14.13;;;;;;;;;;5074755;28;20090;-64
2021/12/23 08:12:55;;;;;;;32.13;13.43;;;;;;;;;;5074398;28;20116;-63
2021/12/23 08:15:21;;;;;;;23.52;12.38;;;;;;;;;;5074500;28;20095;-63
2021/12/23 08:17:47;;;;;;;18.17;13.70;;;;;;;;;;5074219;28;20037;-64
2021/12/23 08:20:14;;;;;;;23.65;13.32;;;;;;;;;;5074874;28;20103;-67
2021/12/23 08:22:41;;;;;;;26.00;13.77;;;;;;;;;;5074230;28;20384;-66
2021/12/23 08:25:07;;;;;;;18.40;12.63;;;;;;;;;;5074273;28;20036;-66
2021/12/23 08:27:34;;;;;;;28.42;13.73;;;;;;;;;;5074282;28;20056;-66
2021/12/23 08:30:00;;;;;;;20.70;13.88;;;;;;;;;;5073959;28;20128;-66
2021/12/23 08:32:26;;;;;;;19.55;13.18;;;;;;;;;;5075471;28;20367;-66
2021/12/23 08:34:52;;;;;;;18.45;12.70;;;;;;;;;;5082871;28;20467;-62
2021/12/23 08:37:18;;;;;;;19.58;13.02;;;;;;;;;;5085691;28;20028;-66
2021/12/23 08:39:47;;;;;;;24.23;13.23;;;;;;;;;;5094189;28;20457;-67
2021/12/23 08:42:13;;;;;;;20.23;11.88;;;;;;;;;;5094166;28;20020;-66
2021/12/23 08:44:40;;;;;;;22.60;11.85;;;;;;;;;;5076065;28;20550;-68
2021/12/23 08:47:06;;;;;;;22.58;12.98;;;;;;;;;;5094406;28;20087;-67
2021/12/23 08:49:32;;;;;;;23.92;11.93;;;;;;;;;;5082369;28;20037;-68
2021/12/23 08:51:58;;;;;;;19.00;12.23;;;;;;;;;;5073556;28;20044;-67
2021/12/23 08:54:24;;;;;;;17.77;11.93;;;;;;;;;;5073671;28;20114;-68
2021/12/23 08:56:50;;;;;;;27.58;12.18;;;;;;;;;;5055968;28;20042;-65
2021/12/23 08:59:17;;;;;;;21.88;12.43;;;;;;;;;;5073850;28;20103;-66
2021/12/23 09:01:43;;;;;;;20.27;11.77;;;;;;;;;;5072700;28;20123;-66
2021/12/23 09:04:09;;;;;;;20.33;12.60;;;;;;;;;;5073853;28;20025;-66
2021/12/23 09:06:35;;;;;;;17.25;12.25;;;;;;;;;;5055617;28;20134;-67
2021/12/23 09:09:01;;;;;;;18.90;12.52;;;;;;;;;;5085511;28;20032;-67
2021/12/23 09:11:27;;;;;;;20.95;12.88;;;;;;;;;;5093027;28;20039;-66
2021/12/23 09:13:53;;;;;;;22.70;12.23;;;;;;;;;;5073815;28;20036;-65
2021/12/23 09:16:19;;;;;;;28.00;12.50;;;;;;;;;;5079130;28;20475;-64
2021/12/23 09:18:45;;;;;;;19.70;12.32;;;;;;;;;;5087910;28;20028;-67
2021/12/23 09:21:12;;;;;;;19.70;12.55;;;;;;;;;;5080059;28;20047;-65
2021/12/23 09:23:39;;;;;;;20.45;12.45;;;;;;;;;;5093718;28;20024;-67
2021/12/23 09:26:09;;;;;;;18.85;12.50;;;;;;;;;;5075044;28;20047;-66
2021/12/23 09:32:40;;;;;;;18.55;12.20;;;;;;;;;;5093317;28;20059;-67
2021/12/23 09:34:10;;;;;;;18.35;12.48;;;;;;;;;;5093647;28;20101;-67
2021/12/23 09:36:36;;;;;;;21.20;13.48;;;;;;;;;;5082237;28;20051;-67
2021/12/23 09:39:03;;;;;;;21.17;13.32;;;;;;;;;;5072971;28;20647;-67
2021/12/23 09:41:30;;;;;;;18.13;12.90;;;;;;;;;;5057118;28;20020;-66
2021/12/23 09:43:58;;;;;;;18.95;12.55;;;;;;;;;;5092804;28;20107;-64
2021/12/23 09:46:24;;;;;;;17.48;12.25;;;;;;;;;;5093037;28;20028;-66
2021/12/23 09:48:50;;;;;;;20.27;12.77;;;;;;;;;;5092829;28;20531;-67
2021/12/23 09:51:18;;;;;;;16.58;12.05;;;;;;;;;;5085164;28;20032;-67
2021/12/23 09:53:45;;;;;;;18.80;13.23;;;;;;;;;;5054502;28;20024;-66
2021/12/23 09:56:12;;;;;;;17.20;11.95;;;;;;;;;;5067967;28;20032;-68
2021/12/23 09:58:39;;;;;;;22.17;12.00;;;;;;;;;;5063985;28;20499;-68
2021/12/23 10:01:07;;;;;;;38.53;12.90;;;;;;;;;;5058336;28;20040;-72
2021/12/23 10:03:33;;;;;;;44.38;12.00;;;;;;;;;;5063536;28;20027;-69
2021/12/23 10:06:00;;;;;;;32.67;11.90;;;;;;;;;;5060877;28;20021;-68
2021/12/23 10:08:28;;;;;;;37.88;12.07;;;;;;;;;;5061472;28;20481;-69
2021/12/23 10:11:00;;;;;;;31.00;11.93;;;;;;;;;;5042367;28;20373;-67
2021/12/23 10:28:59;;;;;;;39.08;16.85;;;;;;;;;;5067742;28;20074;-67
2021/12/23 10:38:38;;;;;;;27.33;14.65;;;;;;;;;;5068563;28;20150;-66
2021/12/23 10:41:10;;;;;;;27.48;14.88;;;;;;;;;;5071571;28;20041;-68
2021/12/23 10:43:41;;;;;;;30.90;14.13;;;;;;;;;;5037182;28;20531;-66
2021/12/23 10:46:12;;;;;;;25.58;14.77;;;;;;;;;;5071482;28;20111;-66
2021/12/23 10:48:52;;;;;;;21.83;13.10;;;;;;;;;;5071701;28;20522;-66
2021/12/23 10:51:19;;;;;;;22.35;13.18;;;;;;;;;;5071640;28;20032;-68
2021/12/23 10:54:19;;;;;;;19.88;12.85;;;;;;;;;;5071598;28;20028;-66
2021/12/23 10:59:30;;;;;;;17.45;12.48;;;;;;;;;;5071545;28;20082;-68
2021/12/23 11:02:03;;;;;;;20.92;12.27;;;;;;;;;;5053286;28;20448;-67
2021/12/23 11:04:35;;;;;;;21.17;12.40;;;;;;;;;;5053443;28;20094;-67
2021/12/23 11:07:13;;;;;;;21.70;13.02;;;;;;;;;;5054034;28;20123;-68
2021/12/23 11:09:55;;;;;;;20.33;12.38;;;;;;;;;;5070948;28;20025;-68
2021/12/23 11:37:43;;;;;;;19.40;12.20;;;;;;;;;;5074694;28;20067;-66
2021/12/23 11:40:50;;;;;;;16.33;11.07;;;;;;;;;;5074938;28;20028;-66
2021/12/23 11:45:33;;;;;;;16.70;11.90;;;;;;;;;;5095015;28;20097;-69
2021/12/23 11:48:04;;;;;;;19.23;11.55;;;;;;;;;;5095141;28;20044;-68
2021/12/23 11:50:41;;;;;;;17.10;11.13;;;;;;;;;;5094018;28;20024;-68
2021/12/23 11:53:07;;;;;;;16.83;11.23;;;;;;;;;;5074448;28;20063;-68
2021/12/23 11:55:33;;;;;;;15.35;11.55;;;;;;;;;;5074832;28;20033;-69
2021/12/23 11:57:59;;;;;;;14.32;10.73;;;;;;;;;;5074590;28;20032;-69
2021/12/23 12:00:41;;;;;;;19.60;11.52;;;;;;;;;;5074680;28;20384;-69
2021/12/23 12:03:08;;;;;;;16.95;11.27;;;;;;;;;;5074734;28;20017;-68
2021/12/23 12:05:34;;;;;;;18.33;11.85;;;;;;;;;;5074803;28;20051;-68
2021/12/23 12:08:07;;;;;;;20.20;11.77;;;;;;;;;;5074250;28;20570;-69
2021/12/23 12:10:33;;;;;;;17.38;11.20;;;;;;;;;;5074281;28;20047;-67
2021/12/23 12:13:01;;;;;;;22.13;12.85;;;;;;;;;;5071864;28;20070;-69
2021/12/23 12:15:34;;;;;;;23.73;11.57;;;;;;;;;;5073169;28;20036;-70
2021/12/23 12:18:01;;;;;;;22.33;11.93;;;;;;;;;;5081142;28;20084;-67
2021/12/23 12:20:36;;;;;;;38.70;12.05;;;;;;;;;;5085782;28;20020;-70
2021/12/23 12:23:07;;;;;;;16.98;11.93;;;;;;;;;;5094752;28;20020;-67
2021/12/23 12:25:42;;;;;;;18.20;11.07;;;;;;;;;;5087493;28;20078;-69
2021/12/23 12:28:08;;;;;;;21.90;12.25;;;;;;;;;;5086644;28;20024;-70
2021/12/23 12:30:38;;;;;;;23.77;12.57;;;;;;;;;;5094336;28;20035;-72
2021/12/23 12:33:05;;;;;;;26.17;14.30;;;;;;;;;;5058921;28;20043;-72
2021/12/23 12:35:31;;;;;;;31.35;15.73;;;;;;;;;;5074075;28;20017;-70
2021/12/23 12:38:18;;;;;;;31.42;15.73;;;;;;;;;;5079084;28;20379;-73
2021/12/23 12:40:58;;;;;;;23.48;15.43;;;;;;;;;;5072637;28;20058;-72
2021/12/23 12:43:41;;;;;;;26.55;16.42;;;;;;;;;;5072925;28;20494;-69
2021/12/23 12:46:08;;;;;;;27.77;17.05;;;;;;;;;;5072940;28;20104;-72
2021/12/23 12:48:52;;;;;;;24.65;16.23;;;;;;;;;;5073455;28;20032;-71
2021/12/23 12:51:19;;;;;;;28.02;16.52;;;;;;;;;;5054234;28;20029;-75
2021/12/23 12:54:15;;;;;;;27.25;17.30;;;;;;;;;;5055893;28;20031;-72
2021/12/23 12:56:46;;;;;;;25.27;16.33;;;;;;;;;;5056957;28;20029;-71
2021/12/23 12:59:12;;;;;;;23.55;16.08;;;;;;;;;;5073392;28;20024;-69
2021/12/23 13:01:43;;;;;;;25.45;16.20;;;;;;;;;;5073605;28;20036;-72
2021/12/23 13:04:23;;;;;;;26.10;15.77;;;;;;;;;;5055863;28;20037;-72
2021/12/23 13:06:50;;;;;;;29.63;17.38;;;;;;;;;;5073303;28;20024;-68
2021/12/23 13:09:21;;;;;;;26.92;17.50;;;;;;;;;;5065000;28;20020;-69
2021/12/23 13:11:49;;;;;;;26.52;17.15;;;;;;;;;;5072693;28;20028;-68
2021/12/23 13:14:21;;;;;;;26.05;16.13;;;;;;;;;;5054587;28;20457;-68
2021/12/23 13:16:51;;;;;;;31.27;16.90;;;;;;;;;;5072695;28;20487;-70
2021/12/23 13:19:21;;;;;;;26.60;16.17;;;;;;;;;;5052105;28;20024;-70
2021/12/23 13:21:55;;;;;;;28.40;16.00;;;;;;;;;;5072332;28;20090;-65
2021/12/23 13:24:22;;;;;;;26.20;16.80;;;;;;;;;;5075068;28;20031;-70
2021/12/23 13:26:48;;;;;;;24.65;16.27;;;;;;;;;;5072936;28;20111;-70
2021/12/23 13:29:14;;;;;;;26.52;16.92;;;;;;;;;;5072484;28;20039;-70
2021/12/23 13:31:41;;;;;;;38.53;17.42;;;;;;;;;;5072802;28;20116;-69
2021/12/23 13:34:12;;;;;;;27.42;16.73;;;;;;;;;;5068397;28;20090;-70
2021/12/23 13:36:40;;;;;;;26.35;16.67;;;;;;;;;;5052537;28;20056;-69
2021/12/23 13:39:27;;;;;;;23.00;15.38;;;;;;;;;;5043737;28;20024;-71
2021/12/23 13:41:56;;;;;;;28.65;17.08;;;;;;;;;;5072184;28;20574;-69
2021/12/23 13:44:32;;;;;;;27.38;16.98;;;;;;;;;;5072452;28;20032;-71
2021/12/23 13:47:00;;;;;;;25.42;16.45;;;;;;;;;;5071800;28;20044;-68
2021/12/23 13:49:32;;;;;;;25.60;16.45;;;;;;;;;;5072264;28;20495;-69
2021/12/23 13:51:58;;;;;;;29.40;17.13;;;;;;;;;;5072096;28;20039;-70
2021/12/23 13:54:24;;;;;;;31.23;17.85;;;;;;;;;;5072558;28;20032;-69
2021/12/23 13:56:51;;;;;;;25.55;16.80;;;;;;;;;;5072490;28;20025;-70
2021/12/23 13:59:18;;;;;;;25.80;16.73;;;;;;;;;;5073100;28;20024;-71
2021/12/23 14:01:50;;;;;;;24.50;17.13;;;;;;;;;;5070441;28;20059;-70
2021/12/23 14:04:35;;;;;;;28.52;17.75;;;;;;;;;;5072638;28;20020;-70
2021/12/23 14:07:06;;;;;;;29.20;17.33;;;;;;;;;;5054468;28;20033;-70
2021/12/23 14:09:37;;;;;;;26.45;16.98;;;;;;;;;;5072400;28;20625;-71
2021/12/23 14:12:04;;;;;;;25.38;16.73;;;;;;;;;;5054657;28;20044;-70
2021/12/23 14:14:30;;;;;;;25.85;16.90;;;;;;;;;;5072714;28;20033;-70
2021/12/23 14:16:56;;;;;;;23.80;16.45;;;;;;;;;;5072820;28;20035;-72
2021/12/23 14:19:28;;;;;;;27.30;16.70;;;;;;;;;;5072385;28;20024;-68
2021/12/23 14:24:39;;;;;;;29.23;17.23;;;;;;;;;;5086451;28;20063;-73
2021/12/23 14:27:06;;;;;;;27.40;17.77;;;;;;;;;;5093036;28;20027;-67
2021/12/23 14:29:34;;;;;;;26.08;17.17;;;;;;;;;;5092368;28;20047;-68
2021/12/23 14:32:00;;;;;;;29.92;17.30;;;;;;;;;;5092259;28;20055;-69
2021/12/23 14:34:28;;;;;;;32.47;17.08;;;;;;;;;;5076411;28;20067;-69
2021/12/23 14:36:55;;;;;;;24.30;16.23;;;;;;;;;;5074140;28;20032;-69
2021/12/23 14:39:21;;;;;;;38.08;17.83;;;;;;;;;;5080634;28;20021;-69
2021/12/23 14:41:49;;;;;;;33.95;17.33;;;;;;;;;;5072076;28;20047;-70
2021/12/23 14:44:21;;;;;;;32.42;17.45;;;;;;;;;;5071912;28;20017;-70
2021/12/23 14:47:04;;;;;;;28.98;17.48;;;;;;;;;;5053957;28;20032;-69
2021/12/23 14:52:14;;;;;;;33.35;18.58;;;;;;;;;;5072157;28;20071;-70
2021/12/23 14:54:57;;;;;;;31.15;17.83;;;;;;;;;;5072066;28;20036;-68
2021/12/23 14:57:32;;;;;;;27.73;17.48;;;;;;;;;;5064994;28;20040;-69
2021/12/23 15:00:00;;;;;;;30.52;18.90;;;;;;;;;;5075363;28;20470;-68
2021/12/23 15:02:28;;;;;;;30.02;18.45;;;;;;;;;;5075835;28;20025;-69
2021/12/23 15:05:03;;;;;;;26.83;17.52;;;;;;;;;;5057506;28;20423;-69
2021/12/23 15:07:45;;;;;;;29.50;18.63;;;;;;;;;;5075343;28;20036;-68
2021/12/23 15:10:11;;;;;;;32.28;19.15;;;;;;;;;;5059594;28;20110;-68
2021/12/23 15:12:37;;;;;;;32.80;19.70;;;;;;;;;;5073538;28;20037;-67
2021/12/23 15:15:06;;;;;;;28.60;19.15;;;;;;;;;;5059489;28;20067;-69
2021/12/23 15:17:41;;;;;;;33.88;18.95;;;;;;;;;;5075426;28;20058;-68
2021/12/23 15:20:17;;;;;;;32.30;19.42;;;;;;;;;;5075319;28;20109;-68
2021/12/23 15:22:44;;;;;;;33.10;19.38;;;;;;;;;;5075287;28;20047;-68
2021/12/23 15:25:12;;;;;;;29.95;18.73;;;;;;;;;;5089353;28;20038;-68
2021/12/23 15:27:40;;;;;;;33.58;19.15;;;;;;;;;;5077488;28;20422;-67
2021/12/23 15:30:08;;;;;;;32.65;19.63;;;;;;;;;;5095569;28;20024;-67
2021/12/23 15:32:35;;;;;;;30.33;19.67;;;;;;;;;;5077392;28;20093;-68
2021/12/23 15:35:05;;;;;;;34.92;20.02;;;;;;;;;;5075385;28;20043;-66
2021/12/23 15:37:32;;;;;;;37.17;19.90;;;;;;;;;;5046192;28;20468;-67
2021/12/23 15:39:58;;;;;;;40.28;20.52;;;;;;;;;;5074578;28;20016;-68
2021/12/23 15:42:24;;;;;;;40.80;21.25;;;;;;;;;;5076039;28;20031;-68